sensor_id;sensor_type;location;lat;lon;timestamp;pressure;altitude;pressure_sealevel;temperature;humidity
73748;BME280;62056;52.130;5.428;2023-04-15T00:01:34;101106.75;;;9.90;47.73
73748;BME280;62056;52.130;5.428;2023-04-15T00:04:02;101105.44;;;9.88;48.19
73748;BME280;62056;52.130;5.428;2023-04-15T00:06:30;101105.19;;;9.84;47.93
73748;BME280;62056;52.130;5.428;2023-04-15T00:08:57;101107.06;;;9.84;48.00
73748;BME280;62056;52.130;5.428;2023-04-15T00:11:24;101110.25;;;9.81;48.40
73748;BME280;62056;52.130;5.428;2023-04-15T00:13:50;101112.38;;;9.79;47.74
73748;BME280;62056;52.130;5.428;2023-04-15T00:16:17;101108.16;;;9.78;48.61
73748;BME280;62056;52.130;5.428;2023-04-15T00:18:44;101102.31;;;9.76;48.49
73748;BME280;62056;52.130;5.428;2023-04-15T00:21:11;101110.56;;;9.74;48.96
73748;BME280;62056;52.130;5.428;2023-04-15T00:23:37;101101.28;;;9.71;48.80
73748;BME280;62056;52.130;5.428;2023-04-15T00:26:04;101101.53;;;9.70;48.71
73748;BME280;62056;52.130;5.428;2023-04-15T00:28:31;101107.13;;;9.68;48.30
73748;BME280;62056;52.130;5.428;2023-04-15T00:30:57;101111.91;;;9.66;48.42
73748;BME280;62056;52.130;5.428;2023-04-15T00:33:24;101109.56;;;9.65;48.49
73748;BME280;62056;52.130;5.428;2023-04-15T00:35:51;101113.53;;;9.62;48.65
73748;BME280;62056;52.130;5.428;2023-04-15T00:38:18;101107.69;;;9.60;48.64
73748;BME280;62056;52.130;5.428;2023-04-15T00:40:45;101108.25;;;9.57;49.11
73748;BME280;62056;52.130;5.428;2023-04-15T00:43:12;101119.41;;;9.54;49.14
73748;BME280;62056;52.130;5.428;2023-04-15T00:45:39;101106.94;;;9.49;49.09
73748;BME280;62056;52.130;5.428;2023-04-15T00:48:06;101116.25;;;9.47;49.69
73748;BME280;62056;52.130;5.428;2023-04-15T00:50:34;101118.66;;;9.43;49.75
73748;BME280;62056;52.130;5.428;2023-04-15T00:53:01;101123.44;;;9.41;49.39
73748;BME280;62056;52.130;5.428;2023-04-15T00:55:28;101122.69;;;9.36;49.98
73748;BME280;62056;52.130;5.428;2023-04-15T00:57:56;101116.56;;;9.35;50.60
73748;BME280;62056;52.130;5.428;2023-04-15T01:00:22;101118.69;;;9.33;50.48
73748;BME280;62056;52.130;5.428;2023-04-15T01:02:50;101117.63;;;9.29;50.27
73748;BME280;62056;52.130;5.428;2023-04-15T01:05:16;101117.91;;;9.27;50.72
73748;BME280;62056;52.130;5.428;2023-04-15T01:07:46;101122.72;;;9.25;50.82
73748;BME280;62056;52.130;5.428;2023-04-15T01:10:13;101125.09;;;9.22;50.60
73748;BME280;62056;52.130;5.428;2023-04-15T01:12:40;101120.34;;;9.19;50.27
73748;BME280;62056;52.130;5.428;2023-04-15T01:15:07;101123.50;;;9.16;50.37
73748;BME280;62056;52.130;5.428;2023-04-15T01:17:36;101119.53;;;9.13;50.23
73748;BME280;62056;52.130;5.428;2023-04-15T01:20:04;101119.81;;;9.11;50.61
73748;BME280;62056;52.130;5.428;2023-04-15T01:22:32;101118.75;;;9.07;51.06
73748;BME280;62056;52.130;5.428;2023-04-15T01:25:04;101113.72;;;9.06;50.70
73748;BME280;62056;52.130;5.428;2023-04-15T01:27:32;101123.78;;;9.04;51.06
73748;BME280;62056;52.130;5.428;2023-04-15T01:30:00;101116.66;;;8.99;51.18
73748;BME280;62056;52.130;5.428;2023-04-15T01:32:28;101117.19;;;8.96;51.17
73748;BME280;62056;52.130;5.428;2023-04-15T01:34:56;101120.91;;;8.95;51.27
73748;BME280;62056;52.130;5.428;2023-04-15T01:37:23;101114.28;;;8.93;50.91
73748;BME280;62056;52.130;5.428;2023-04-15T01:39:50;101116.66;;;8.89;51.08
73748;BME280;62056;52.130;5.428;2023-04-15T01:42:17;101118.00;;;8.86;51.71
73748;BME280;62056;52.130;5.428;2023-04-15T01:44:44;101118.56;;;8.83;51.30
73748;BME280;62056;52.130;5.428;2023-04-15T01:47:11;101120.94;;;8.80;51.76
73748;BME280;62056;52.130;5.428;2023-04-15T01:49:38;101116.97;;;8.77;51.84
73748;BME280;62056;52.130;5.428;2023-04-15T01:52:05;101123.31;;;8.76;52.31
73748;BME280;62056;52.130;5.428;2023-04-15T01:54:32;101121.22;;;8.73;52.15
73748;BME280;62056;52.130;5.428;2023-04-15T01:56:59;101121.72;;;8.70;52.64
73748;BME280;62056;52.130;5.428;2023-04-15T01:59:26;101113.50;;;8.66;52.94
73748;BME280;62056;52.130;5.428;2023-04-15T02:01:53;101123.56;;;8.64;52.89
73748;BME280;62056;52.130;5.428;2023-04-15T02:04:20;101124.91;;;8.62;52.14
73748;BME280;62056;52.130;5.428;2023-04-15T02:06:47;101121.19;;;8.58;52.68
73748;BME280;62056;52.130;5.428;2023-04-15T02:09:14;101128.63;;;8.56;52.30
73748;BME280;62056;52.130;5.428;2023-04-15T02:11:41;101129.94;;;8.53;52.58
73748;BME280;62056;52.130;5.428;2023-04-15T02:14:08;101124.38;;;8.49;53.25
73748;BME280;62056;52.130;5.428;2023-04-15T02:16:34;101128.63;;;8.45;52.45
73748;BME280;62056;52.130;5.428;2023-04-15T02:19:02;101131.00;;;8.42;53.57
73748;BME280;62056;52.130;5.428;2023-04-15T02:21:29;101128.84;;;8.39;53.81
73748;BME280;62056;52.130;5.428;2023-04-15T02:23:56;101133.63;;;8.37;53.80
73748;BME280;62056;52.130;5.428;2023-04-15T02:26:23;101139.16;;;8.35;53.68
73748;BME280;62056;52.130;5.428;2023-04-15T02:28:58;101138.63;;;8.33;54.15
73748;BME280;62056;52.130;5.428;2023-04-15T02:31:25;101144.47;;;8.30;54.04
73748;BME280;62056;52.130;5.428;2023-04-15T02:33:51;101149.00;;;8.29;54.15
73748;BME280;62056;52.130;5.428;2023-04-15T02:36:18;101151.91;;;8.28;54.66
73748;BME280;62056;52.130;5.428;2023-04-15T02:38:46;101151.34;;;8.26;55.07
73748;BME280;62056;52.130;5.428;2023-04-15T02:41:13;101152.41;;;8.25;54.75
73748;BME280;62056;52.130;5.428;2023-04-15T02:43:40;101157.16;;;8.23;55.49
73748;BME280;62056;52.130;5.428;2023-04-15T02:46:06;101168.31;;;8.20;55.03
73748;BME280;62056;52.130;5.428;2023-04-15T02:48:33;101162.47;;;8.18;55.06
73748;BME280;62056;52.130;5.428;2023-04-15T02:51:13;101168.03;;;8.16;57.58
73748;BME280;62056;52.130;5.428;2023-04-15T02:53:40;101165.13;;;8.13;54.89
73748;BME280;62056;52.130;5.428;2023-04-15T02:56:07;101165.63;;;8.09;55.46
73748;BME280;62056;52.130;5.428;2023-04-15T02:59:02;101174.66;;;8.08;55.19
73748;BME280;62056;52.130;5.428;2023-04-15T03:01:29;101173.28;;;8.06;55.98
73748;BME280;62056;52.130;5.428;2023-04-15T03:04:23;101174.59;;;8.03;55.13
73748;BME280;62056;52.130;5.428;2023-04-15T03:06:49;101173.53;;;7.99;55.45
73748;BME280;62056;52.130;5.428;2023-04-15T03:09:17;101176.44;;;7.98;55.48
73748;BME280;62056;52.130;5.428;2023-04-15T03:12:16;101179.63;;;7.95;56.63
73748;BME280;62056;52.130;5.428;2023-04-15T03:14:42;101179.88;;;7.93;56.14
73748;BME280;62056;52.130;5.428;2023-04-15T03:17:09;101181.19;;;7.90;55.64
73748;BME280;62056;52.130;5.428;2023-04-15T03:19:35;101185.16;;;7.88;56.64
73748;BME280;62056;52.130;5.428;2023-04-15T03:22:02;101189.13;;;7.85;56.21
73748;BME280;62056;52.130;5.428;2023-04-15T03:24:29;101192.03;;;7.84;57.01
73748;BME280;62056;52.130;5.428;2023-04-15T03:26:56;101188.84;;;7.82;56.59
73748;BME280;62056;52.130;5.428;2023-04-15T03:29:23;101192.53;;;7.81;56.88
73748;BME280;62056;52.130;5.428;2023-04-15T03:31:51;101186.97;;;7.77;56.40
73748;BME280;62056;52.130;5.428;2023-04-15T03:34:18;101191.75;;;7.75;56.97
73748;BME280;62056;52.130;5.428;2023-04-15T03:36:45;101192.25;;;7.72;57.68
73748;BME280;62056;52.130;5.428;2023-04-15T03:39:12;101194.59;;;7.68;58.32
73748;BME280;62056;52.130;5.428;2023-04-15T03:41:38;101191.16;;;7.68;58.02
73748;BME280;62056;52.130;5.428;2023-04-15T03:44:05;101197.22;;;7.63;57.65
73748;BME280;62056;52.130;5.428;2023-04-15T03:46:32;101202.75;;;7.57;59.48
73748;BME280;62056;52.130;5.428;2023-04-15T03:48:59;101206.97;;;7.53;58.92
73748;BME280;62056;52.130;5.428;2023-04-15T03:51:26;101211.69;;;7.45;57.79
73748;BME280;62056;52.130;5.428;2023-04-15T03:53:53;101214.06;;;7.42;58.72
73748;BME280;62056;52.130;5.428;2023-04-15T03:56:20;101221.72;;;7.43;59.27
73748;BME280;62056;52.130;5.428;2023-04-15T03:58:46;101215.63;;;7.43;59.22
73748;BME280;62056;52.130;5.428;2023-04-15T04:01:13;101219.06;;;7.43;58.68
73748;BME280;62056;52.130;5.428;2023-04-15T04:03:40;101218.28;;;7.43;58.38
73748;BME280;62056;52.130;5.428;2023-04-15T04:06:07;101217.50;;;7.42;58.46
73748;BME280;62056;52.130;5.428;2023-04-15T04:08:33;101218.81;;;7.40;58.29
73748;BME280;62056;52.130;5.428;2023-04-15T04:11:00;101229.63;;;7.38;60.02
73748;BME280;62056;52.130;5.428;2023-04-15T04:13:27;101233.06;;;7.34;58.99
73748;BME280;62056;52.130;5.428;2023-04-15T04:15:54;101232.75;;;7.30;59.88
73748;BME280;62056;52.130;5.428;2023-04-15T04:18:20;101236.97;;;7.26;59.66
73748;BME280;62056;52.130;5.428;2023-04-15T04:20:47;101239.31;;;7.22;60.52
73748;BME280;62056;52.130;5.428;2023-04-15T04:23:14;101237.44;;;7.18;59.54
73748;BME280;62056;52.130;5.428;2023-04-15T04:25:40;101242.41;;;7.14;61.62
73748;BME280;62056;52.130;5.428;2023-04-15T04:28:07;101251.66;;;7.12;60.99
73748;BME280;62056;52.130;5.428;2023-04-15T04:30:34;101256.16;;;7.11;61.44
73748;BME280;62056;52.130;5.428;2023-04-15T04:33:01;101249.53;;;7.08;60.91
73748;BME280;62056;52.130;5.428;2023-04-15T04:35:28;101249.00;;;7.06;61.42
73748;BME280;62056;52.130;5.428;2023-04-15T04:37:54;101270.88;;;7.02;60.95
73748;BME280;62056;52.130;5.428;2023-04-15T04:40:21;101267.13;;;6.98;61.88
73748;BME280;62056;52.130;5.428;2023-04-15T04:42:48;101267.66;;;6.95;61.13
73748;BME280;62056;52.130;5.428;2023-04-15T04:45:15;101281.34;;;6.92;61.69
73748;BME280;62056;52.130;5.428;2023-04-15T04:47:41;101276.03;;;6.86;61.82
73748;BME280;62056;52.130;5.428;2023-04-15T04:50:08;101280.78;;;6.84;62.74
73748;BME280;62056;52.130;5.428;2023-04-15T04:52:35;101283.38;;;6.79;62.12
73748;BME280;62056;52.130;5.428;2023-04-15T04:55:02;101291.00;;;6.76;63.15
73748;BME280;62056;52.130;5.428;2023-04-15T04:57:29;101297.03;;;6.71;62.33
73748;BME280;62056;52.130;5.428;2023-04-15T04:59:55;101293.31;;;6.67;63.95
73748;BME280;62056;52.130;5.428;2023-04-15T05:02:22;101305.16;;;6.64;63.47
73748;BME280;62056;52.130;5.428;2023-04-15T05:04:52;101299.03;;;6.59;63.90
73748;BME280;62056;52.130;5.428;2023-04-15T05:07:21;101303.75;;;6.57;62.71
73748;BME280;62056;52.130;5.428;2023-04-15T05:09:48;101309.53;;;6.54;63.14
73748;BME280;62056;52.130;5.428;2023-04-15T05:12:14;101316.91;;;6.52;64.12
73748;BME280;62056;52.130;5.428;2023-04-15T05:14:41;101323.78;;;6.53;63.95
73748;BME280;62056;52.130;5.428;2023-04-15T05:17:08;101325.88;;;6.51;63.68
73748;BME280;62056;52.130;5.428;2023-04-15T05:19:35;101336.78;;;6.54;65.43
73748;BME280;62056;52.130;5.428;2023-04-15T05:22:01;101330.97;;;6.57;64.46
73748;BME280;62056;52.130;5.428;2023-04-15T05:24:28;101339.22;;;6.61;64.54
73748;BME280;62056;52.130;5.428;2023-04-15T05:26:55;101336.31;;;6.62;64.64
73748;BME280;62056;52.130;5.428;2023-04-15T05:29:22;101342.97;;;6.65;64.44
73748;BME280;62056;52.130;5.428;2023-04-15T05:31:49;101340.88;;;6.67;64.81
73748;BME280;62056;52.130;5.428;2023-04-15T05:34:16;101349.34;;;6.69;64.52
73748;BME280;62056;52.130;5.428;2023-04-15T05:36:42;101352.78;;;6.69;64.56
73748;BME280;62056;52.130;5.428;2023-04-15T05:39:09;101361.03;;;6.73;64.40
73748;BME280;62056;52.130;5.428;2023-04-15T05:41:36;101355.47;;;6.75;64.22
73748;BME280;62056;52.130;5.428;2023-04-15T05:44:03;101365.25;;;6.74;63.86
73748;BME280;62056;52.130;5.428;2023-04-15T05:46:30;101367.44;;;6.77;64.16
73748;BME280;62056;52.130;5.428;2023-04-15T05:48:57;101369.81;;;6.79;64.92
73748;BME280;62056;52.130;5.428;2023-04-15T05:51:23;101376.47;;;6.81;64.45
73748;BME280;62056;52.130;5.428;2023-04-15T05:53:50;101381.00;;;6.86;68.12
73748;BME280;62056;52.130;5.428;2023-04-15T05:56:16;101381.56;;;6.88;65.68
73748;BME280;62056;52.130;5.428;2023-04-15T05:58:43;101380.25;;;6.91;65.62
73748;BME280;62056;52.130;5.428;2023-04-15T06:01:10;101388.50;;;6.94;65.48
73748;BME280;62056;52.130;5.428;2023-04-15T06:04:04;101392.25;;;6.98;65.79
73748;BME280;62056;52.130;5.428;2023-04-15T06:06:31;101390.16;;;7.00;66.14
73748;BME280;62056;52.130;5.428;2023-04-15T06:08:58;101396.22;;;7.01;64.97
73748;BME280;62056;52.130;5.428;2023-04-15T06:11:58;101397.56;;;7.03;66.71
73748;BME280;62056;52.130;5.428;2023-04-15T06:14:29;101403.66;;;7.04;65.00
73748;BME280;62056;52.130;5.428;2023-04-15T06:16:56;101408.16;;;7.03;65.45
73748;BME280;62056;52.130;5.428;2023-04-15T06:19:23;101417.44;;;7.06;66.48
73748;BME280;62056;52.130;5.428;2023-04-15T06:21:50;101421.44;;;7.08;66.39
73748;BME280;62056;52.130;5.428;2023-04-15T06:24:17;101420.38;;;7.09;66.40
73748;BME280;62056;52.130;5.428;2023-04-15T06:26:44;101433.13;;;7.13;68.04
73748;BME280;62056;52.130;5.428;2023-04-15T06:29:10;101432.84;;;7.14;68.43
73748;BME280;62056;52.130;5.428;2023-04-15T06:31:37;101434.47;;;7.15;69.39
73748;BME280;62056;52.130;5.428;2023-04-15T06:34:04;101432.13;;;7.19;70.49
73748;BME280;62056;52.130;5.428;2023-04-15T06:36:30;101445.72;;;7.27;71.41
73748;BME280;62056;52.130;5.428;2023-04-15T06:38:58;101450.03;;;7.39;71.43
73748;BME280;62056;52.130;5.428;2023-04-15T06:41:25;101442.28;;;7.54;71.65
73748;BME280;62056;52.130;5.428;2023-04-15T06:44:19;101456.97;;;7.72;72.79
73748;BME280;62056;52.130;5.428;2023-04-15T06:46:46;101458.47;;;7.90;72.84
73748;BME280;62056;52.130;5.428;2023-04-15T06:49:12;101461.78;;;8.07;72.73
73748;BME280;62056;52.130;5.428;2023-04-15T06:51:39;101459.50;;;8.21;73.47
73748;BME280;62056;52.130;5.428;2023-04-15T06:54:05;101464.88;;;8.37;74.00
73748;BME280;62056;52.130;5.428;2023-04-15T06:56:32;101469.47;;;8.46;73.98
73748;BME280;62056;52.130;5.428;2023-04-15T06:58:59;101469.81;;;8.60;74.54
73748;BME280;62056;52.130;5.428;2023-04-15T07:01:26;101487.41;;;8.77;74.39
73748;BME280;62056;52.130;5.428;2023-04-15T07:03:53;101483.25;;;8.96;74.91
73748;BME280;62056;52.130;5.428;2023-04-15T07:06:21;101494.47;;;9.08;74.59
73748;BME280;62056;52.130;5.428;2023-04-15T07:08:48;101496.06;;;9.20;74.52
73748;BME280;62056;52.130;5.428;2023-04-15T07:11:15;101500.63;;;9.29;74.04
73748;BME280;62056;52.130;5.428;2023-04-15T07:13:42;101495.34;;;9.40;75.26
73748;BME280;62056;52.130;5.428;2023-04-15T07:16:09;101509.44;;;9.50;74.15
73748;BME280;62056;52.130;5.428;2023-04-15T07:18:36;101505.19;;;9.60;74.15
73748;BME280;62056;52.130;5.428;2023-04-15T07:21:02;101515.06;;;9.69;74.15
73748;BME280;62056;52.130;5.428;2023-04-15T07:23:29;101512.91;;;9.77;73.91
73748;BME280;62056;52.130;5.428;2023-04-15T07:25:56;101516.13;;;9.84;74.18
73748;BME280;62056;52.130;5.428;2023-04-15T07:28:23;101524.88;;;9.89;73.57
73748;BME280;62056;52.130;5.428;2023-04-15T07:30:50;101523.03;;;9.95;73.67
73748;BME280;62056;52.130;5.428;2023-04-15T07:33:17;101525.44;;;10.02;74.31
73748;BME280;62056;52.130;5.428;2023-04-15T07:35:44;101527.03;;;10.03;72.24
73748;BME280;62056;52.130;5.428;2023-04-15T07:38:11;101532.63;;;10.06;73.63
73748;BME280;62056;52.130;5.428;2023-04-15T07:40:39;101531.03;;;10.16;73.61
73748;BME280;62056;52.130;5.428;2023-04-15T07:43:05;101522.53;;;10.24;72.82
73748;BME280;62056;52.130;5.428;2023-04-15T07:45:32;101536.34;;;10.41;72.22
73748;BME280;62056;52.130;5.428;2023-04-15T07:47:59;101538.47;;;10.49;71.85
73748;BME280;62056;52.130;5.428;2023-04-15T07:50:27;101534.47;;;10.57;69.03
73748;BME280;62056;52.130;5.428;2023-04-15T07:52:54;101550.16;;;10.69;71.13
73748;BME280;62056;52.130;5.428;2023-04-15T07:55:21;101532.31;;;10.80;70.77
73748;BME280;62056;52.130;5.428;2023-04-15T07:57:49;101536.53;;;10.86;69.73
73748;BME280;62056;52.130;5.428;2023-04-15T08:00:16;101545.56;;;10.95;69.89
73748;BME280;62056;52.130;5.428;2023-04-15T08:02:43;101552.19;;;11.03;68.53
73748;BME280;62056;52.130;5.428;2023-04-15T08:05:10;101549.53;;;11.03;67.45
73748;BME280;62056;52.130;5.428;2023-04-15T08:07:37;101555.34;;;11.10;68.25
73748;BME280;62056;52.130;5.428;2023-04-15T08:10:04;101565.75;;;11.06;66.70
73748;BME280;62056;52.130;5.428;2023-04-15T08:12:31;101562.53;;;11.09;67.25
73748;BME280;62056;52.130;5.428;2023-04-15T08:14:58;101564.13;;;11.16;67.18
73748;BME280;62056;52.130;5.428;2023-04-15T08:17:25;101561.47;;;11.16;65.66
73748;BME280;62056;52.130;5.428;2023-04-15T08:19:52;101565.16;;;11.20;65.40
73748;BME280;62056;52.130;5.428;2023-04-15T08:22:19;101567.53;;;11.26;63.31
73748;BME280;62056;52.130;5.428;2023-04-15T08:24:47;101577.66;;;11.29;64.06
73748;BME280;62056;52.130;5.428;2023-04-15T08:27:14;101573.13;;;11.30;63.96
73748;BME280;62056;52.130;5.428;2023-04-15T08:29:40;101565.63;;;11.37;64.46
73748;BME280;62056;52.130;5.428;2023-04-15T08:32:07;101576.00;;;11.44;64.00
73748;BME280;62056;52.130;5.428;2023-04-15T08:34:35;101574.66;;;11.46;62.33
73748;BME280;62056;52.130;5.428;2023-04-15T08:37:01;101576.19;;;11.58;62.34
73748;BME280;62056;52.130;5.428;2023-04-15T08:39:28;101580.69;;;11.62;62.77
73748;BME280;62056;52.130;5.428;2023-04-15T08:42:02;101586.81;;;11.63;60.38
73748;BME280;62056;52.130;5.428;2023-04-15T08:44:33;101592.38;;;11.66;61.83
73748;BME280;62056;52.130;5.428;2023-04-15T08:47:06;101598.53;;;11.62;60.98
73748;BME280;62056;52.130;5.428;2023-04-15T08:49:38;101600.41;;;11.56;61.63
73748;BME280;62056;52.130;5.428;2023-04-15T08:52:05;101614.50;;;11.67;61.22
73748;BME280;62056;52.130;5.428;2023-04-15T08:54:33;101614.31;;;11.53;60.70
73748;BME280;62056;52.130;5.428;2023-04-15T08:57:00;101618.84;;;11.52;61.17
73748;BME280;62056;52.130;5.428;2023-04-15T08:59:29;101625.97;;;11.62;61.22
73748;BME280;62056;52.130;5.428;2023-04-15T09:01:56;101630.72;;;11.70;61.00
73748;BME280;62056;52.130;5.428;2023-04-15T09:04:26;101624.66;;;11.65;61.29
73748;BME280;62056;52.130;5.428;2023-04-15T09:06:53;101630.19;;;11.73;61.55
73748;BME280;62056;52.130;5.428;2023-04-15T09:09:20;101630.38;;;11.87;61.58
73748;BME280;62056;52.130;5.428;2023-04-15T09:11:48;101634.38;;;11.85;59.99
73748;BME280;62056;52.130;5.428;2023-04-15T09:14:16;101640.19;;;12.02;60.54
73748;BME280;62056;52.130;5.428;2023-04-15T09:17:00;101648.41;;;12.11;61.08
73748;BME280;62056;52.130;5.428;2023-04-15T09:19:30;101652.72;;;12.02;59.82
73748;BME280;62056;52.130;5.428;2023-04-15T09:21:59;101654.59;;;12.01;59.88
73748;BME280;62056;52.130;5.428;2023-04-15T09:24:35;101647.38;;;12.02;59.75
73748;BME280;62056;52.130;5.428;2023-04-15T09:27:05;101659.91;;;12.06;59.59
73748;BME280;62056;52.130;5.428;2023-04-15T09:29:32;101660.06;;;12.20;59.89
73748;BME280;62056;52.130;5.428;2023-04-15T09:32:12;101669.53;;;12.02;59.39
73748;BME280;62056;52.130;5.428;2023-04-15T09:34:39;101677.53;;;12.02;59.47
73748;BME280;62056;52.130;5.428;2023-04-15T09:37:06;101671.00;;;12.19;59.68
73748;BME280;62056;52.130;5.428;2023-04-15T09:39:50;101674.84;;;12.02;59.14
73748;BME280;62056;52.130;5.428;2023-04-15T09:42:17;101671.09;;;12.08;60.29
73748;BME280;62056;52.130;5.428;2023-04-15T09:44:50;101670.47;;;12.22;59.89
73748;BME280;62056;52.130;5.428;2023-04-15T09:47:29;101670.94;;;12.29;60.01
73748;BME280;62056;52.130;5.428;2023-04-15T09:49:59;101674.09;;;12.36;59.76
73748;BME280;62056;52.130;5.428;2023-04-15T09:52:26;101675.09;;;12.45;60.09
73748;BME280;62056;52.130;5.428;2023-04-15T09:54:56;101672.59;;;12.59;59.13
73748;BME280;62056;52.130;5.428;2023-04-15T09:57:23;101673.88;;;12.67;58.03
73748;BME280;62056;52.130;5.428;2023-04-15T09:59:51;101672.06;;;12.57;57.89
73748;BME280;62056;52.130;5.428;2023-04-15T10:02:18;101682.16;;;12.65;58.46
73748;BME280;62056;52.130;5.428;2023-04-15T10:04:48;101681.56;;;12.73;57.80
73748;BME280;62056;52.130;5.428;2023-04-15T10:07:16;101692.03;;;12.65;57.48
73748;BME280;62056;52.130;5.428;2023-04-15T10:09:47;101685.00;;;12.79;58.92
73748;BME280;62056;52.130;5.428;2023-04-15T10:12:18;101690.41;;;12.98;58.63
73748;BME280;62056;52.130;5.428;2023-04-15T10:14:52;101700.09;;;13.18;56.79
73748;BME280;62056;52.130;5.428;2023-04-15T10:17:22;101700.75;;;13.05;54.92
73748;BME280;62056;52.130;5.428;2023-04-15T10:19:52;101705.78;;;13.11;56.66
73748;BME280;62056;52.130;5.428;2023-04-15T10:22:21;101696.78;;;13.02;55.98
73748;BME280;62056;52.130;5.428;2023-04-15T10:24:49;101697.84;;;13.01;57.00
73748;BME280;62056;52.130;5.428;2023-04-15T10:27:16;101700.50;;;13.06;56.42
73748;BME280;62056;52.130;5.428;2023-04-15T10:29:44;101700.19;;;13.08;57.13
73748;BME280;62056;52.130;5.428;2023-04-15T10:32:11;101697.38;;;13.23;57.05
73748;BME280;62056;52.130;5.428;2023-04-15T10:34:39;101691.16;;;13.33;56.68
73748;BME280;62056;52.130;5.428;2023-04-15T10:37:08;101709.88;;;13.28;56.50
73748;BME280;62056;52.130;5.428;2023-04-15T10:39:38;101704.38;;;13.48;56.45
73748;BME280;62056;52.130;5.428;2023-04-15T10:42:12;101713.56;;;13.37;56.84
73748;BME280;62056;52.130;5.428;2023-04-15T10:44:44;101704.38;;;13.48;56.00
73748;BME280;62056;52.130;5.428;2023-04-15T10:47:14;101726.25;;;13.50;56.57
73748;BME280;62056;52.130;5.428;2023-04-15T10:49:49;101714.47;;;13.75;55.81
73748;BME280;62056;52.130;5.428;2023-04-15T10:52:17;101724.03;;;13.57;54.43
73748;BME280;62056;52.130;5.428;2023-04-15T10:54:44;101720.91;;;13.21;55.50
73748;BME280;62056;52.130;5.428;2023-04-15T10:57:21;101719.72;;;13.38;54.90
73748;BME280;62056;52.130;5.428;2023-04-15T11:00:01;101734.28;;;13.50;54.87
73748;BME280;62056;52.130;5.428;2023-04-15T11:02:58;101739.09;;;13.48;55.15
73748;BME280;62056;52.130;5.428;2023-04-15T11:05:50;101737.34;;;13.63;53.77
73748;BME280;62056;52.130;5.428;2023-04-15T11:08:55;101741.13;;;13.32;53.81
73748;BME280;62056;52.130;5.428;2023-04-15T11:11:22;101736.34;;;13.29;53.73
73748;BME280;62056;52.130;5.428;2023-04-15T11:13:50;101734.78;;;13.23;54.09
73748;BME280;62056;52.130;5.428;2023-04-15T11:16:17;101744.88;;;13.31;54.32
73748;BME280;62056;52.130;5.428;2023-04-15T11:18:53;101739.09;;;13.48;53.93
73748;BME280;62056;52.130;5.428;2023-04-15T11:21:24;101738.63;;;13.41;53.78
73748;BME280;62056;52.130;5.428;2023-04-15T11:23:51;101745.47;;;13.23;53.65
73748;BME280;62056;52.130;5.428;2023-04-15T11:26:18;101744.97;;;13.16;54.60
73748;BME280;62056;52.130;5.428;2023-04-15T11:28:45;101742.22;;;13.26;54.08
73748;BME280;62056;52.130;5.428;2023-04-15T11:31:16;101751.69;;;13.13;54.45
73748;BME280;62056;52.130;5.428;2023-04-15T11:34:01;101755.50;;;13.36;54.59
73748;BME280;62056;52.130;5.428;2023-04-15T11:36:29;101748.34;;;13.32;54.68
73748;BME280;62056;52.130;5.428;2023-04-15T11:38:58;101750.44;;;13.35;55.66
73748;BME280;62056;52.130;5.428;2023-04-15T11:41:25;101753.06;;;13.40;55.15
73748;BME280;62056;52.130;5.428;2023-04-15T11:43:52;101747.16;;;13.43;54.70
73748;BME280;62056;52.130;5.428;2023-04-15T11:46:19;101752.63;;;13.28;54.68
73748;BME280;62056;52.130;5.428;2023-04-15T11:48:47;101747.81;;;13.30;54.39
73748;BME280;62056;52.130;5.428;2023-04-15T11:51:14;101754.72;;;13.36;54.50
73748;BME280;62056;52.130;5.428;2023-04-15T11:53:45;101759.13;;;13.46;54.40
73748;BME280;62056;52.130;5.428;2023-04-15T11:56:23;101767.03;;;13.27;54.50
73748;BME280;62056;52.130;5.428;2023-04-15T11:58:55;101755.66;;;13.50;54.37
73748;BME280;62056;52.130;5.428;2023-04-15T12:01:35;101771.34;;;13.57;54.78
73748;BME280;62056;52.130;5.428;2023-04-15T12:04:11;101775.19;;;13.70;53.43
73748;BME280;62056;52.130;5.428;2023-04-15T12:06:39;101769.94;;;13.65;54.02
73748;BME280;62056;52.130;5.428;2023-04-15T12:09:12;101784.19;;;13.55;54.12
73748;BME280;62056;52.130;5.428;2023-04-15T12:11:55;101770.13;;;13.68;52.93
73748;BME280;62056;52.130;5.428;2023-04-15T12:14:33;101790.63;;;13.78;52.85
73748;BME280;62056;52.130;5.428;2023-04-15T12:17:06;101789.97;;;13.62;53.43
73748;BME280;62056;52.130;5.428;2023-04-15T12:19:38;101796.13;;;13.63;53.86
73748;BME280;62056;52.130;5.428;2023-04-15T12:22:11;101794.53;;;13.62;53.97
73748;BME280;62056;52.130;5.428;2023-04-15T12:24:40;101789.59;;;13.74;53.60
73748;BME280;62056;52.130;5.428;2023-04-15T12:27:13;101795.53;;;13.71;52.91
73748;BME280;62056;52.130;5.428;2023-04-15T12:29:41;101815.44;;;13.84;52.11
73748;BME280;62056;52.130;5.428;2023-04-15T12:32:10;101809.59;;;13.76;52.63
73748;BME280;62056;52.130;5.428;2023-04-15T12:34:41;101807.38;;;13.60;53.81
73748;BME280;62056;52.130;5.428;2023-04-15T12:37:10;101810.13;;;13.79;53.33
73748;BME280;62056;52.130;5.428;2023-04-15T12:39:40;101811.63;;;13.90;53.29
73748;BME280;62056;52.130;5.428;2023-04-15T12:42:07;101819.44;;;13.81;53.03
73748;BME280;62056;52.130;5.428;2023-04-15T12:44:44;101818.09;;;13.84;53.54
73748;BME280;62056;52.130;5.428;2023-04-15T12:47:30;101829.38;;;13.51;54.70
73748;BME280;62056;52.130;5.428;2023-04-15T12:49:58;101825.06;;;13.55;54.64
73748;BME280;62056;52.130;5.428;2023-04-15T12:52:25;101833.75;;;13.37;55.03
73748;BME280;62056;52.130;5.428;2023-04-15T12:55:19;101837.44;;;13.46;55.33
73748;BME280;62056;52.130;5.428;2023-04-15T12:57:54;101837.97;;;13.72;54.73
73748;BME280;62056;52.130;5.428;2023-04-15T13:00:21;101856.41;;;13.45;55.42
73748;BME280;62056;52.130;5.428;2023-04-15T13:03:36;101840.19;;;13.36;54.88
73748;BME280;62056;52.130;5.428;2023-04-15T13:06:04;101846.31;;;13.42;54.90